Time;durP1;ratioP1;P1;durP2;ratioP2;P2;SDS_P1;SDS_P2;PMS_P1;PMS_P2;Temp;Humidity;BMP_temperature;BMP_pressure;BME280_temperature;BME280_humidity;BME280_pressure;Samples;Min_cycle;Max_cycle;Signal;HPM_P1;HPM_P2
2023/04/27 00:01:09;;;;;;;4.87;3.23;;;14.30;61.30;;;;;;5053274;28;20964;-65
2023/04/27 00:03:36;;;;;;;6.50;3.60;;;14.20;61.70;;;;;;5052391;28;20940;-65
2023/04/27 00:06:03;;;;;;;3.97;3.10;;;14.20;61.60;;;;;;5040665;28;20449;-65
2023/04/27 00:08:30;;;;;;;4.53;3.17;;;14.20;61.20;;;;;;5052659;28;20468;-64
2023/04/27 00:10:59;;;;;;;5.27;3.43;;;14.20;61.10;;;;;;5051078;28;20584;-64
2023/04/27 00:13:26;;;;;;;3.27;2.90;;;14.10;60.90;;;;;;5039307;28;20449;-65
2023/04/27 00:15:54;;;;;;;7.57;3.20;;;14.10;60.80;;;;;;5044037;28;20499;-64
2023/04/27 00:18:21;;;;;;;4.27;3.00;;;14.10;60.80;;;;;;5041155;28;20494;-65
2023/04/27 00:20:48;;;;;;;4.37;3.20;;;14.10;61.20;;;;;;5047891;28;20477;-64
2023/04/27 00:23:14;;;;;;;4.40;3.10;;;14.10;61.10;;;;;;5044381;28;20544;-64
2023/04/27 00:25:41;;;;;;;4.47;3.00;;;14.00;61.00;;;;;;5033061;28;20933;-64
2023/04/27 00:28:09;;;;;;;4.60;3.20;;;14.00;61.80;;;;;;5045211;28;20472;-65
2023/04/27 00:30:36;;;;;;;5.10;3.00;;;14.00;61.00;;;;;;5041844;28;20455;-64
2023/04/27 00:33:03;;;;;;;4.33;3.50;;;13.90;61.10;;;;;;5048461;28;20954;-65
2023/04/27 00:35:32;;;;;;;5.43;3.10;;;13.90;61.40;;;;;;5048854;28;20451;-64
2023/04/27 00:37:58;;;;;;;4.47;2.97;;;13.80;61.60;;;;;;5051877;28;20484;-64
2023/04/27 00:40:25;;;;;;;4.47;3.10;;;13.80;61.70;;;;;;5042314;28;20492;-64
2023/04/27 00:42:52;;;;;;;5.00;3.10;;;13.70;61.40;;;;;;5041391;28;20872;-64
2023/04/27 00:45:20;;;;;;;4.13;3.20;;;13.70;61.40;;;;;;5052103;28;20948;-64
2023/04/27 00:47:47;;;;;;;4.10;3.50;;;13.70;61.40;;;;;;5051475;28;20994;-64
2023/04/27 00:50:15;;;;;;;3.97;3.20;;;13.60;61.30;;;;;;5039721;28;20456;-64
2023/04/27 00:52:42;;;;;;;4.50;3.37;;;13.60;61.60;;;;;;5050308;28;20539;-64
2023/04/27 00:55:09;;;;;;;5.87;3.60;;;13.60;61.30;;;;;;5052565;28;20449;-64
2023/04/27 00:57:36;;;;;;;3.93;3.27;;;13.50;61.30;;;;;;5036910;28;20512;-65
2023/04/27 01:00:05;;;;;;;3.77;3.30;;;13.50;61.50;;;;;;5046439;28;20476;-64
2023/04/27 01:02:35;;;;;;;5.27;3.50;;;13.50;61.50;;;;;;5052220;28;20510;-65
2023/04/27 01:05:03;;;;;;;5.20;3.50;;;13.50;61.50;;;;;;5039045;28;20464;-65
2023/04/27 01:07:30;;;;;;;3.40;3.10;;;13.40;61.70;;;;;;5049980;28;20813;-64
2023/04/27 01:09:57;;;;;;;4.23;3.30;;;13.40;61.70;;;;;;5049629;28;20452;-64
2023/04/27 01:12:23;;;;;;;5.10;3.30;;;13.30;62.10;;;;;;5032414;28;20445;-64
2023/04/27 01:14:50;;;;;;;6.53;3.50;;;13.30;62.30;;;;;;5034483;28;20457;-64
2023/04/27 01:17:18;;;;;;;4.67;3.23;;;13.30;63.30;;;;;;5039074;28;21125;-64
2023/04/27 01:19:46;;;;;;;3.63;3.33;;;13.30;62.60;;;;;;5048891;28;20456;-65
2023/04/27 01:22:14;;;;;;;5.50;3.70;;;13.20;62.80;;;;;;5038999;28;20457;-65
2023/04/27 01:24:42;;;;;;;3.97;3.47;;;13.20;63.20;;;;;;5041881;28;20490;-65
2023/04/27 01:27:09;;;;;;;6.93;3.70;;;13.20;63.30;;;;;;5045957;28;20479;-64
2023/04/27 01:29:36;;;;;;;5.57;3.90;;;13.10;64.20;;;;;;5046958;28;20459;-65
2023/04/27 01:32:02;;;;;;;4.80;3.70;;;13.10;63.70;;;;;;5035344;28;20561;-64
2023/04/27 01:34:29;;;;;;;4.90;4.00;;;13.10;63.70;;;;;;5034422;28;20483;-64
2023/04/27 01:36:56;;;;;;;5.53;4.47;;;13.00;63.50;;;;;;5041047;28;20456;-64
2023/04/27 01:39:23;;;;;;;5.37;3.47;;;13.00;63.70;;;;;;5032830;28;20485;-64
2023/04/27 01:41:51;;;;;;;4.23;3.63;;;13.00;63.90;;;;;;5041929;28;20455;-64
2023/04/27 01:44:19;;;;;;;4.53;3.53;;;13.00;63.90;;;;;;5033111;28;20448;-64
2023/04/27 01:46:46;;;;;;;5.90;3.87;;;13.00;63.90;;;;;;5047556;28;20456;-64
2023/04/27 01:49:13;;;;;;;4.87;3.60;;;13.00;63.60;;;;;;5051772;28;21150;-64
2023/04/27 01:51:40;;;;;;;5.50;3.57;;;13.00;63.40;;;;;;5050997;28;20476;-65
2023/04/27 01:54:07;;;;;;;3.60;3.30;;;13.00;63.30;;;;;;5051518;28;20452;-64
2023/04/27 01:56:34;;;;;;;5.10;3.43;;;13.00;63.40;;;;;;5049469;28;20466;-64
2023/04/27 01:59:02;;;;;;;4.20;3.50;;;13.00;63.90;;;;;;5041951;28;20833;-64
2023/04/27 02:01:30;;;;;;;5.93;3.67;;;13.00;63.90;;;;;;5032924;28;20539;-64
2023/04/27 02:03:56;;;;;;;4.97;3.80;;;13.00;63.60;;;;;;5037991;28;20503;-64
2023/04/27 02:06:23;;;;;;;4.53;3.50;;;13.10;63.30;;;;;;5051323;28;20967;-64
2023/04/27 02:08:50;;;;;;;4.80;3.27;;;13.00;63.10;;;;;;5051488;28;20492;-64
2023/04/27 02:11:17;;;;;;;4.40;3.80;;;13.10;63.50;;;;;;5043337;28;20467;-64
2023/04/27 02:13:44;;;;;;;6.10;4.07;;;13.10;63.60;;;;;;5048211;28;20453;-64
2023/04/27 02:16:12;;;;;;;4.73;4.20;;;13.10;63.40;;;;;;5042462;28;20448;-64
2023/04/27 02:18:39;;;;;;;4.67;3.90;;;13.10;63.70;;;;;;5050485;28;20578;-64
2023/04/27 02:21:09;;;;;;;4.77;4.10;;;13.10;64.00;;;;;;5040829;28;20477;-64
2023/04/27 02:23:36;;;;;;;6.57;4.33;;;13.10;64.10;;;;;;5033030;28;20448;-64
2023/04/27 02:26:03;;;;;;;4.17;3.30;;;13.10;64.30;;;;;;5041588;28;20473;-64
2023/04/27 03:22:22;;;;;;;5.17;4.00;;;12.90;65.10;;;;;;5052944;28;20508;-64
2023/04/27 03:24:50;;;;;;;5.67;4.07;;;12.90;65.10;;;;;;5037911;28;20526;-64
2023/04/27 03:27:17;;;;;;;4.70;4.13;;;12.90;65.20;;;;;;5054753;28;20441;-64
2023/04/27 03:29:44;;;;;;;5.37;4.10;;;12.90;65.10;;;;;;5038240;28;20927;-64
2023/04/27 03:32:11;;;;;;;6.23;4.20;;;13.00;65.20;;;;;;5049794;28;20468;-64
2023/04/27 03:34:37;;;;;;;4.37;3.70;;;13.00;65.20;;;;;;5045829;28;20488;-64
2023/04/27 03:37:05;;;;;;;6.20;4.53;;;13.00;65.20;;;;;;5054340;28;20925;-64
2023/04/27 03:39:33;;;;;;;5.60;3.87;;;13.00;65.20;;;;;;5053220;28;20808;-65
2023/04/27 03:42:00;;;;;;;5.73;4.07;;;13.00;65.20;;;;;;5036715;28;20454;-65
2023/04/27 03:44:27;;;;;;;4.13;3.60;;;13.00;65.20;;;;;;5044595;28;20444;-65
2023/04/27 03:46:53;;;;;;;5.00;3.90;;;13.00;65.20;;;;;;5044481;28;20966;-64
2023/04/27 03:49:20;;;;;;;8.80;4.37;;;13.00;65.20;;;;;;5049295;28;20450;-64
2023/04/27 03:51:47;;;;;;;5.23;4.20;;;13.00;65.20;;;;;;5043029;28;21005;-64
2023/04/27 03:54:14;;;;;;;4.27;3.70;;;13.00;65.20;;;;;;5039471;28;20445;-64
2023/04/27 03:56:43;;;;;;;4.37;3.90;;;13.00;64.80;;;;;;5042190;28;20494;-65
2023/04/27 03:59:10;;;;;;;5.00;3.80;;;13.00;64.90;;;;;;5053220;28;20491;-64
2023/04/27 04:01:38;;;;;;;5.90;3.60;;;13.00;64.60;;;;;;5039911;28;20456;-64
2023/04/27 04:04:05;;;;;;;5.23;4.07;;;13.00;64.40;;;;;;5035822;28;20481;-64
2023/04/27 04:06:32;;;;;;;4.77;3.80;;;13.00;64.10;;;;;;5036434;28;20480;-64
2023/04/27 04:08:59;;;;;;;4.07;3.60;;;12.90;63.90;;;;;;5050320;28;21010;-65
2023/04/27 04:11:26;;;;;;;6.30;3.73;;;12.90;63.90;;;;;;5049703;28;20536;-64
2023/04/27 04:13:54;;;;;;;5.80;3.80;;;12.90;63.90;;;;;;5040766;28;20451;-65
2023/04/27 04:16:21;;;;;;;5.43;3.33;;;12.90;63.70;;;;;;5053166;28;20459;-64
2023/04/27 04:18:48;;;;;;;3.83;3.20;;;12.90;63.60;;;;;;5052606;28;20476;-65
2023/04/27 04:21:15;;;;;;;4.87;3.57;;;12.90;63.60;;;;;;5053281;28;20522;-64
2023/04/27 04:23:42;;;;;;;4.17;3.47;;;12.90;63.30;;;;;;5049363;28;20547;-64
2023/04/27 04:26:09;;;;;;;5.00;3.73;;;12.90;63.50;;;;;;5042399;28;20477;-64
2023/04/27 04:28:36;;;;;;;5.53;2.80;;;12.90;63.40;;;;;;5033498;28;20552;-64
2023/04/27 04:31:05;;;;;;;4.27;3.57;;;12.90;63.40;;;;;;5052042;28;20468;-64
2023/04/27 04:33:32;;;;;;;4.07;3.40;;;12.90;63.60;;;;;;5049765;28;20459;-64
2023/04/27 04:35:59;;;;;;;3.37;3.07;;;12.90;63.00;;;;;;5033012;28;20540;-65
2023/04/27 04:38:26;;;;;;;4.00;3.30;;;12.90;62.30;;;;;;5035082;28;20487;-64
2023/04/27 04:40:52;;;;;;;4.07;3.10;;;12.90;62.20;;;;;;5050788;28;20444;-64
2023/04/27 04:43:20;;;;;;;3.83;3.00;;;12.90;62.50;;;;;;5051490;28;20476;-64
2023/04/27 04:45:47;;;;;;;5.10;3.50;;;12.80;62.40;;;;;;5033988;28;20488;-64
2023/04/27 04:48:16;;;;;;;4.50;3.20;;;12.80;62.30;;;;;;5040323;28;20476;-64
2023/04/27 04:50:43;;;;;;;3.50;3.10;;;12.80;62.30;;;;;;5052230;28;20463;-64
2023/04/27 04:53:10;;;;;;;6.03;3.27;;;12.80;62.20;;;;;;5034591;28;20459;-64
2023/04/27 04:55:36;;;;;;;5.53;3.17;;;12.80;62.10;;;;;;5036128;28;20448;-64
2023/04/27 04:58:03;;;;;;;3.63;3.00;;;12.80;62.10;;;;;;5050575;28;20465;-64
2023/04/27 05:00:30;;;;;;;5.30;2.90;;;12.90;61.80;;;;;;5047537;28;20566;-64
2023/04/27 05:02:57;;;;;;;4.13;2.87;;;12.80;61.80;;;;;;5035917;28;20453;-64
2023/04/27 05:05:25;;;;;;;3.50;3.10;;;12.80;61.80;;;;;;5048515;28;20545;-64
2023/04/27 05:07:52;;;;;;;4.10;3.00;;;12.80;61.60;;;;;;5049349;28;20457;-64
2023/04/27 05:10:19;;;;;;;3.73;3.37;;;12.80;61.70;;;;;;5036686;28;20987;-64
2023/04/27 05:12:46;;;;;;;5.57;3.17;;;12.90;61.90;;;;;;5043226;28;20455;-65
2023/04/27 05:15:13;;;;;;;4.43;3.50;;;12.90;62.00;;;;;;5033551;28;20536;-64
2023/04/27 05:17:40;;;;;;;4.50;2.70;;;12.90;62.90;;;;;;5038022;28;20472;-64
2023/04/27 05:20:08;;;;;;;4.73;3.03;;;12.90;61.90;;;;;;5051304;28;20484;-65
2023/04/27 05:22:36;;;;;;;6.63;3.63;;;12.90;62.10;;;;;;5046666;28;21053;-65
2023/04/27 05:25:04;;;;;;;4.60;3.20;;;12.90;62.10;;;;;;5046291;28;21107;-64
2023/04/27 05:27:30;;;;;;;4.57;3.20;;;13.00;62.00;;;;;;5036965;28;20468;-64
2023/04/27 05:29:57;;;;;;;6.13;3.30;;;13.00;62.00;;;;;;5034096;28;20520;-64
2023/04/27 05:32:24;;;;;;;4.37;3.13;;;13.00;62.00;;;;;;5042017;28;20530;-64
2023/04/27 05:34:51;;;;;;;5.43;3.50;;;13.00;61.70;;;;;;5035171;28;20996;-65
2023/04/27 05:37:18;;;;;;;4.70;3.47;;;13.10;61.80;;;;;;5045455;28;20456;-65
2023/04/27 05:39:46;;;;;;;5.47;3.53;;;13.10;61.90;;;;;;5034004;28;20992;-64
2023/04/27 05:42:13;;;;;;;8.97;3.70;;;13.20;61.90;;;;;;5038306;28;20444;-64
2023/04/27 05:44:40;;;;;;;6.10;3.60;;;13.20;61.90;;;;;;5051702;28;20567;-65
2023/04/27 05:47:07;;;;;;;4.87;3.77;;;13.30;62.20;;;;;;5048511;28;20461;-65
2023/04/27 05:49:34;;;;;;;6.90;4.07;;;13.30;62.00;;;;;;5050935;28;20440;-64
2023/04/27 05:52:03;;;;;;;4.37;3.50;;;13.30;62.10;;;;;;5047291;28;20464;-65
2023/04/27 05:54:29;;;;;;;6.13;3.80;;;13.30;61.90;;;;;;5031341;28;20455;-65
2023/04/27 05:56:58;;;;;;;4.27;3.27;;;13.40;61.80;;;;;;5031951;28;20489;-65
2023/04/27 05:59:26;;;;;;;4.93;3.67;;;13.50;61.70;;;;;;5051238;28;20480;-64
2023/04/27 06:01:54;;;;;;;8.27;4.47;;;13.50;61.70;;;;;;5050501;28;20476;-64
2023/04/27 06:04:21;;;;;;;4.77;3.83;;;13.50;61.90;;;;;;5050565;28;20454;-65
2023/04/27 06:06:48;;;;;;;6.80;4.30;;;13.60;61.90;;;;;;5045963;28;20564;-64
2023/04/27 06:09:15;;;;;;;4.70;3.57;;;13.70;61.60;;;;;;5041839;28;20537;-64
2023/04/27 06:11:42;;;;;;;5.70;3.73;;;13.70;61.20;;;;;;5054628;28;20444;-64
2023/04/27 06:14:10;;;;;;;4.27;3.17;;;13.70;61.10;;;;;;5053941;28;20459;-65
2023/04/27 06:16:37;;;;;;;6.33;3.30;;;13.80;60.80;;;;;;5041961;28;20448;-65
2023/04/27 06:19:04;;;;;;;4.43;3.17;;;13.80;60.80;;;;;;5036323;28;20522;-63
2023/04/27 06:21:32;;;;;;;6.23;3.57;;;13.90;61.60;;;;;;5035339;28;20453;-63
2023/04/27 06:23:59;;;;;;;6.07;3.53;;;13.90;60.80;;;;;;5048031;28;20473;-63
2023/04/27 06:26:27;;;;;;;6.13;3.40;;;13.90;60.90;;;;;;5055342;28;20540;-63
2023/04/27 06:28:55;;;;;;;6.70;3.60;;;14.00;61.00;;;;;;5049114;28;20440;-63
2023/04/27 06:31:23;;;;;;;7.10;3.83;;;14.00;60.50;;;;;;5052473;28;20448;-64
2023/04/27 06:33:50;;;;;;;5.97;3.90;;;14.10;60.70;;;;;;5050118;28;20448;-64
2023/04/27 06:36:17;;;;;;;4.30;3.30;;;14.10;60.20;;;;;;5039352;28;21342;-63
2023/04/27 06:38:43;;;;;;;5.73;3.77;;;14.20;60.40;;;;;;5050686;28;20547;-63
2023/04/27 06:41:10;;;;;;;5.93;4.00;;;14.30;60.30;;;;;;5036888;28;20477;-63
2023/04/27 06:43:37;;;;;;;4.27;3.83;;;14.30;60.60;;;;;;5036396;28;20799;-63
2023/04/27 06:46:05;;;;;;;7.43;4.00;;;14.30;60.30;;;;;;5035864;28;20488;-63
2023/04/27 06:48:33;;;;;;;4.60;4.07;;;14.40;60.30;;;;;;5047665;28;20460;-63
2023/04/27 06:51:00;;;;;;;3.77;3.40;;;14.30;60.20;;;;;;5055022;28;20460;-63
2023/04/27 06:53:27;;;;;;;7.17;4.03;;;14.40;60.10;;;;;;5053789;28;20563;-63
2023/04/27 06:55:54;;;;;;;5.70;3.83;;;14.40;59.80;;;;;;5053735;28;20444;-63
2023/04/27 06:58:21;;;;;;;4.97;4.20;;;14.50;59.50;;;;;;5042388;28;20843;-64
2023/04/27 07:00:48;;;;;;;7.13;4.47;;;14.60;59.30;;;;;;5033492;28;21076;-63
2023/04/27 07:03:15;;;;;;;4.07;3.67;;;14.60;59.40;;;;;;5033359;28;20472;-63
2023/04/27 07:05:43;;;;;;;4.80;3.90;;;14.70;59.80;;;;;;5033420;28;20538;-63
2023/04/27 07:08:10;;;;;;;6.53;4.17;;;14.80;59.50;;;;;;5039574;28;20560;-63
2023/04/27 07:10:37;;;;;;;4.70;3.80;;;14.90;59.50;;;;;;5033775;28;20441;-64
2023/04/27 07:13:04;;;;;;;5.37;3.90;;;15.00;59.60;;;;;;5033385;28;20565;-63
2023/04/27 07:15:31;;;;;;;4.80;3.23;;;15.00;59.00;;;;;;5033251;28;20452;-63
2023/04/27 07:17:58;;;;;;;4.20;3.73;;;15.10;59.10;;;;;;5032547;28;20476;-64
2023/04/27 07:20:25;;;;;;;5.53;3.50;;;15.20;59.10;;;;;;5033475;28;20485;-65
2023/04/27 07:22:53;;;;;;;5.67;3.53;;;15.20;58.30;;;;;;5033378;28;20865;-67
2023/04/27 07:25:21;;;;;;;7.13;4.13;;;15.30;58.10;;;;;;5033314;28;20505;-63
2023/04/27 07:27:48;;;;;;;6.63;3.57;;;15.30;57.80;;;;;;5032941;28;20532;-64
2023/04/27 07:30:16;;;;;;;5.20;3.40;;;15.30;57.80;;;;;;5033105;28;20456;-64
2023/04/27 07:32:43;;;;;;;4.57;3.30;;;15.30;57.00;;;;;;5033342;28;20817;-64
2023/04/27 07:35:10;;;;;;;4.67;4.00;;;15.30;57.10;;;;;;5033282;28;20449;-64
2023/04/27 07:37:37;;;;;;;4.70;3.50;;;15.30;56.80;;;;;;5036740;28;20822;-63
2023/04/27 07:40:13;;;;;;;3.63;2.93;;;15.40;57.30;;;;;;5053046;28;20484;-63
2023/04/27 07:42:40;;;;;;;3.93;3.40;;;15.50;57.50;;;;;;5032782;28;20441;-64
2023/04/27 07:45:08;;;;;;;5.17;3.90;;;15.60;57.50;;;;;;5032728;28;20990;-64
2023/04/27 07:47:35;;;;;;;4.87;3.40;;;15.70;58.10;;;;;;5032373;28;21082;-64
2023/04/27 07:50:20;;;;;;;4.93;3.37;;;15.90;58.50;;;;;;5032760;28;20448;-64
2023/04/27 07:52:47;;;;;;;4.67;3.50;;;16.00;58.40;;;;;;5032628;28;20953;-63
2023/04/27 07:55:15;;;;;;;4.33;3.30;;;16.10;57.90;;;;;;5032776;28;20540;-63
2023/04/27 07:57:42;;;;;;;5.77;3.33;;;16.20;58.20;;;;;;5036874;28;20895;-64
2023/04/27 08:00:10;;;;;;;4.13;3.20;;;16.30;58.20;;;;;;5052043;28;20531;-64
2023/04/27 08:02:37;;;;;;;3.40;3.10;;;16.40;57.30;;;;;;5033313;28;20601;-64
2023/04/27 08:05:04;;;;;;;4.13;2.93;;;16.50;56.90;;;;;;5032300;28;20773;-64
2023/04/27 08:07:31;;;;;;;4.10;3.40;;;16.70;56.70;;;;;;5043329;28;20535;-65
2023/04/27 08:09:58;;;;;;;5.10;3.10;;;16.80;56.70;;;;;;5052287;28;20464;-64
2023/04/27 08:12:27;;;;;;;4.57;3.50;;;16.90;56.10;;;;;;5034684;28;20484;-64
2023/04/27 08:14:53;;;;;;;7.43;3.63;;;17.00;56.80;;;;;;5032096;28;20445;-64
2023/04/27 08:17:21;;;;;;;4.20;3.67;;;17.00;56.30;;;;;;5032626;28;20445;-64
2023/04/27 08:19:48;;;;;;;7.63;3.27;;;17.10;56.00;;;;;;5032164;28;20487;-64
2023/04/27 08:22:15;;;;;;;5.13;3.30;;;17.20;55.60;;;;;;5047445;28;20828;-64
2023/04/27 08:24:41;;;;;;;4.07;3.23;;;17.30;55.90;;;;;;5052308;28;20455;-64
2023/04/27 08:27:08;;;;;;;4.47;3.20;;;17.30;54.30;;;;;;5052443;28;20448;-64
2023/04/27 08:29:37;;;;;;;3.37;2.67;;;17.40;54.30;;;;;;5050575;28;20476;-64
2023/04/27 08:32:05;;;;;;;4.93;2.80;;;17.50;54.10;;;;;;5052254;28;20543;-64
2023/04/27 08:34:32;;;;;;;3.97;2.90;;;17.60;54.30;;;;;;5051881;28;20444;-64
2023/04/27 08:36:59;;;;;;;5.57;3.03;;;17.70;54.40;;;;;;5051750;28;20483;-64
2023/04/27 08:39:26;;;;;;;3.70;2.77;;;17.90;53.80;;;;;;5051600;28;20448;-64
2023/04/27 08:41:53;;;;;;;4.27;2.70;;;18.00;53.40;;;;;;5039334;28;20485;-65
2023/04/27 08:44:20;;;;;;;4.40;2.80;;;18.00;53.00;;;;;;5031369;28;20536;-65
2023/04/27 08:46:49;;;;;;;3.20;2.57;;;18.10;52.90;;;;;;5043061;28;20449;-64
2023/04/27 08:49:16;;;;;;;5.10;3.07;;;18.20;53.40;;;;;;5051602;28;20476;-64
2023/04/27 08:51:43;;;;;;;6.53;3.10;;;18.30;53.10;;;;;;5051237;28;20456;-64
2023/04/27 08:54:10;;;;;;;4.50;3.60;;;18.40;52.10;;;;;;5040011;28;20262;-65
2023/04/27 08:56:37;;;;;;;3.37;3.07;;;18.50;52.80;;;;;;5031783;28;20480;-64
2023/04/27 08:59:13;;;;;;;2.77;2.53;;;18.50;53.10;;;;;;5031521;28;20472;-65
2023/04/27 09:01:44;;;;;;;4.20;2.80;;;18.60;52.70;;;;;;5040544;28;20904;-64
2023/04/27 09:04:12;;;;;;;6.37;3.03;;;18.70;52.30;;;;;;5051541;28;20451;-64
2023/04/27 09:06:39;;;;;;;4.33;2.73;;;18.80;51.70;;;;;;5051323;28;20536;-65
2023/04/27 09:09:07;;;;;;;4.20;2.83;;;18.90;52.50;;;;;;5051578;28;20316;-65
2023/04/27 09:11:36;;;;;;;4.40;2.90;;;19.00;52.70;;;;;;5042437;28;20957;-64
2023/04/27 09:14:16;;;;;;;4.80;3.10;;;19.10;52.60;;;;;;5030819;28;20706;-64
2023/04/27 09:16:43;;;;;;;4.80;3.43;;;19.20;52.70;;;;;;5031580;28;20686;-65
2023/04/27 09:19:11;;;;;;;4.57;3.33;;;19.20;51.90;;;;;;5031396;28;20805;-64
2023/04/27 09:21:38;;;;;;;3.07;2.50;;;19.20;51.40;;;;;;5039782;28;20275;-64
2023/04/27 09:24:12;;;;;;;4.77;2.80;;;19.30;51.60;;;;;;5051245;28;20201;-65
2023/04/27 09:26:40;;;;;;;4.40;3.17;;;19.40;51.60;;;;;;5051269;28;20480;-64
2023/04/27 09:29:07;;;;;;;3.60;2.70;;;19.50;51.30;;;;;;5050682;28;20464;-64
2023/04/27 09:31:35;;;;;;;5.60;3.17;;;19.60;51.40;;;;;;5049290;28;20502;-65
2023/04/27 09:34:04;;;;;;;3.37;3.07;;;19.60;51.40;;;;;;5051057;28;20205;-65
2023/04/27 09:36:32;;;;;;;3.40;2.80;;;19.70;51.50;;;;;;5051494;28;20585;-65
2023/04/27 09:39:03;;;;;;;7.80;3.23;;;19.80;51.30;;;;;;5051235;28;20234;-65
2023/04/27 09:41:32;;;;;;;5.13;3.23;;;19.90;50.90;;;;;;5046312;28;20222;-65
2023/04/27 09:44:00;;;;;;;3.77;3.30;;;20.00;50.70;;;;;;5035328;28;20291;-65
2023/04/27 09:46:29;;;;;;;4.43;3.30;;;20.10;50.80;;;;;;5035298;28;20241;-64
2023/04/27 09:48:56;;;;;;;8.00;3.93;;;20.10;50.40;;;;;;5035386;28;20233;-65
2023/04/27 09:51:23;;;;;;;3.30;2.70;;;20.20;50.20;;;;;;5035077;28;20218;-64
2023/04/27 09:53:55;;;;;;;7.53;3.20;;;20.40;49.50;;;;;;5043317;28;20198;-65
2023/04/27 09:56:33;;;;;;;4.40;3.03;;;20.50;49.60;;;;;;5055117;28;20222;-65
2023/04/27 09:59:15;;;;;;;6.03;3.70;;;20.60;49.30;;;;;;5055228;28;20201;-64
2023/04/27 10:01:47;;;;;;;4.63;3.13;;;20.80;48.50;;;;;;5046075;28;20317;-65
2023/04/27 10:04:27;;;;;;;3.67;3.30;;;20.90;48.70;;;;;;5034644;28;20732;-65
2023/04/27 10:07:02;;;;;;;4.50;3.70;;;21.00;47.70;;;;;;5040838;28;20285;-65
2023/04/27 10:09:36;;;;;;;3.60;3.30;;;21.10;47.90;;;;;;5054705;28;20311;-65
2023/04/27 10:12:18;;;;;;;4.87;3.50;;;21.20;47.20;;;;;;5042813;28;20198;-65
2023/04/27 10:14:50;;;;;;;6.93;4.40;;;21.40;47.80;;;;;;5034660;28;20260;-65
2023/04/27 10:17:18;;;;;;;5.60;4.00;;;21.50;47.80;;;;;;5034842;28;20234;-65
2023/04/27 10:19:54;;;;;;;5.87;4.67;;;21.60;46.80;;;;;;5034515;28;20214;-65
2023/04/27 10:22:22;;;;;;;7.47;3.60;;;21.70;45.70;;;;;;5047491;28;20294;-64
2023/04/27 10:24:51;;;;;;;4.23;3.40;;;21.80;46.20;;;;;;5054191;28;20224;-65
2023/04/27 10:27:21;;;;;;;6.60;3.40;;;21.70;46.20;;;;;;5054302;28;20201;-65
2023/04/27 10:29:49;;;;;;;3.73;2.97;;;21.80;46.30;;;;;;5054044;28;20793;-65
2023/04/27 10:32:22;;;;;;;4.10;3.03;;;21.90;46.40;;;;;;5054253;28;20210;-64
2023/04/27 10:34:52;;;;;;;6.50;3.80;;;21.90;45.50;;;;;;5053922;28;20206;-65
2023/04/27 10:37:23;;;;;;;3.40;3.03;;;22.00;44.80;;;;;;5054316;28;20206;-65
2023/04/27 10:39:52;;;;;;;5.57;3.63;;;22.10;45.70;;;;;;5053606;28;20212;-65
2023/04/27 10:42:28;;;;;;;5.83;3.33;;;22.10;45.30;;;;;;5053385;28;20288;-65
2023/04/27 10:44:57;;;;;;;3.90;3.10;;;22.10;45.10;;;;;;5053467;28;20220;-65
2023/04/27 10:47:24;;;;;;;6.27;2.70;;;22.20;45.40;;;;;;5054191;28;20205;-65
2023/04/27 10:49:53;;;;;;;3.23;2.70;;;22.30;45.20;;;;;;5053698;28;20632;-65
2023/04/27 10:52:20;;;;;;;2.87;2.50;;;22.40;44.30;;;;;;5047803;28;20204;-65
2023/04/27 10:54:47;;;;;;;4.50;2.20;;;22.40;43.70;;;;;;5052623;28;20240;-64
2023/04/27 10:57:16;;;;;;;2.97;2.63;;;22.60;44.30;;;;;;5053726;28;20206;-65
2023/04/27 10:59:51;;;;;;;4.37;2.70;;;22.60;43.40;;;;;;5053793;28;20259;-65
2023/04/27 11:02:25;;;;;;;4.03;2.87;;;22.70;43.50;;;;;;5053465;28;20669;-65
2023/04/27 11:04:52;;;;;;;3.07;2.60;;;22.80;43.50;;;;;;5053690;28;20259;-65
2023/04/27 11:07:26;;;;;;;3.73;2.40;;;22.90;43.10;;;;;;5053474;28;20226;-65
2023/04/27 11:09:53;;;;;;;4.30;2.80;;;22.90;42.70;;;;;;5053240;28;20208;-65
2023/04/27 11:12:22;;;;;;;4.97;2.87;;;23.00;42.00;;;;;;5052920;28;20257;-65
2023/04/27 11:14:49;;;;;;;4.47;2.77;;;23.00;42.10;;;;;;5053106;28;20209;-65
2023/04/27 11:17:16;;;;;;;3.53;2.87;;;23.00;42.20;;;;;;5053230;28;20205;-65
2023/04/27 11:19:47;;;;;;;4.60;2.63;;;23.10;42.50;;;;;;5052744;28;20233;-65
2023/04/27 11:22:16;;;;;;;3.60;2.80;;;23.20;41.80;;;;;;5052896;28;20225;-65
2023/04/27 11:24:50;;;;;;;6.40;3.43;;;23.10;43.00;;;;;;5052657;28;20316;-65
2023/04/27 11:27:17;;;;;;;5.00;3.03;;;23.10;42.70;;;;;;5053091;28;20216;-65
2023/04/27 11:29:45;;;;;;;3.77;3.00;;;23.20;42.50;;;;;;5052445;28;20214;-65
2023/04/27 11:32:19;;;;;;;4.17;2.83;;;23.10;42.90;;;;;;5042634;28;20240;-65
2023/04/27 11:34:49;;;;;;;3.87;2.83;;;23.10;42.50;;;;;;5033160;28;20210;-64
2023/04/27 11:37:22;;;;;;;9.23;3.40;;;23.20;42.30;;;;;;5032786;28;20234;-65
2023/04/27 11:39:49;;;;;;;6.13;3.13;;;23.20;42.20;;;;;;5033316;28;20217;-65
2023/04/27 11:42:18;;;;;;;4.50;2.67;;;23.30;42.20;;;;;;5032956;28;20232;-65
2023/04/27 11:44:52;;;;;;;4.73;2.47;;;23.30;41.80;;;;;;5032956;28;20238;-64
2023/04/27 11:47:20;;;;;;;5.30;2.77;;;23.30;41.60;;;;;;5032768;28;20216;-65
2023/04/27 11:49:48;;;;;;;4.50;2.57;;;23.40;41.80;;;;;;5032637;28;20233;-65
2023/04/27 11:52:15;;;;;;;4.17;2.73;;;23.40;41.80;;;;;;5041556;28;20228;-65
2023/04/27 11:54:47;;;;;;;4.90;3.33;;;23.40;40.70;;;;;;5052278;28;20210;-65
2023/04/27 11:57:14;;;;;;;4.17;2.90;;;23.40;40.30;;;;;;5051869;28;20206;-64
2023/04/27 11:59:41;;;;;;;4.90;2.80;;;23.40;40.30;;;;;;5052708;28;20214;-64
2023/04/27 12:02:10;;;;;;;3.57;3.27;;;23.50;40.80;;;;;;5353651;22;20220;-66
2023/04/27 12:04:37;;;;;;;5.73;3.03;;;23.60;40.40;;;;;;5006306;28;20234;-65
2023/04/27 12:07:04;;;;;;;4.13;2.93;;;23.70;40.60;;;;;;5009587;28;20203;-66
2023/04/27 12:09:31;;;;;;;5.50;2.60;;;23.80;40.30;;;;;;5011164;28;20206;-66
2023/04/27 12:11:59;;;;;;;5.00;2.60;;;23.90;40.30;;;;;;5011095;28;20234;-68
2023/04/27 12:14:26;;;;;;;6.83;3.07;;;24.00;40.60;;;;;;5011272;28;20227;-66
2023/04/27 12:16:52;;;;;;;5.60;2.90;;;24.00;38.50;;;;;;5010927;28;20209;-67
2023/04/27 12:19:23;;;;;;;4.57;2.50;;;23.90;38.50;;;;;;5011179;28;20294;-65
2023/04/27 12:21:50;;;;;;;4.60;2.70;;;23.80;39.40;;;;;;5010546;28;20268;-68
2023/04/27 12:24:16;;;;;;;2.93;2.60;;;23.80;40.20;;;;;;5011073;28;20261;-70
2023/04/27 12:26:43;;;;;;;2.90;2.60;;;23.90;39.20;;;;;;5010747;28;20286;-69
2023/04/27 12:29:10;;;;;;;4.73;2.83;;;23.80;39.80;;;;;;5010972;28;20326;-69
2023/04/27 12:31:37;;;;;;;4.77;2.40;;;23.90;40.10;;;;;;5011033;28;20202;-70
2023/04/27 12:34:04;;;;;;;3.30;2.20;;;24.00;40.40;;;;;;5010905;28;20217;-69
2023/04/27 12:36:32;;;;;;;5.30;2.53;;;24.10;40.70;;;;;;5010439;28;20545;-69
2023/04/27 12:39:30;;;;;;;3.27;2.33;;;24.20;40.50;;;;;;5010814;28;20301;-66
2023/04/27 12:41:57;;;;;;;3.33;2.00;;;24.30;39.90;;;;;;5009184;28;20301;-66
2023/04/27 12:44:24;;;;;;;4.87;2.73;;;24.40;39.80;;;;;;5010650;28;20234;-66
2023/04/27 12:46:51;;;;;;;3.00;2.47;;;24.50;39.60;;;;;;5010445;28;20738;-65
2023/04/27 12:49:18;;;;;;;4.17;2.50;;;24.70;38.60;;;;;;5010450;28;20221;-65
2023/04/27 12:51:46;;;;;;;5.13;2.67;;;24.50;37.80;;;;;;5010607;28;20226;-65
2023/04/27 12:54:13;;;;;;;3.13;2.20;;;24.50;38.60;;;;;;5010041;28;20737;-65
2023/04/27 12:56:40;;;;;;;3.53;2.17;;;24.60;39.30;;;;;;5010920;28;20216;-67
2023/04/27 12:59:07;;;;;;;2.17;1.97;;;24.70;39.80;;;;;;5010574;28;20578;-65
2023/04/27 13:01:34;;;;;;;4.03;2.13;;;24.90;39.30;;;;;;5010475;28;20318;-65
2023/04/27 13:04:02;;;;;;;4.17;2.60;;;24.90;38.50;;;;;;5010293;28;20230;-65
2023/04/27 13:06:30;;;;;;;4.07;2.23;;;25.00;37.80;;;;;;5010163;28;20277;-65
2023/04/27 13:08:59;;;;;;;12.80;10.20;;;25.10;38.50;;;;;;5010132;28;20211;-66
2023/04/27 13:11:27;;;;;;;6.33;4.10;;;25.20;38.50;;;;;;5010495;28;20202;-65
2023/04/27 13:13:54;;;;;;;3.90;2.33;;;25.30;38.20;;;;;;5010243;28;20643;-66
2023/04/27 13:16:23;;;;;;;2.33;1.93;;;25.40;38.60;;;;;;5009712;28;20211;-67
2023/04/27 13:18:51;;;;;;;3.20;2.33;;;25.50;38.60;;;;;;5009895;28;20207;-65
2023/04/27 13:21:18;;;;;;;2.80;2.00;;;25.60;38.30;;;;;;5010467;28;20318;-65
2023/04/27 13:23:46;;;;;;;2.60;2.07;;;25.60;38.00;;;;;;5010290;28;20203;-65
2023/04/27 13:26:15;;;;;;;5.07;2.13;;;25.70;38.00;;;;;;5010096;28;20207;-65
2023/04/27 13:28:42;;;;;;;3.23;1.93;;;25.80;37.30;;;;;;5009788;28;20210;-66
2023/04/27 13:31:09;;;;;;;3.70;2.00;;;25.80;37.70;;;;;;5009942;28;20712;-65
2023/04/27 13:33:41;;;;;;;6.40;4.20;;;25.80;38.00;;;;;;5009512;28;20671;-65
2023/04/27 13:36:08;;;;;;;5.73;5.13;;;25.90;37.50;;;;;;5010527;28;20206;-65
2023/04/27 13:38:35;;;;;;;4.27;2.00;;;25.90;37.60;;;;;;5009688;28;20877;-65
2023/04/27 13:41:02;;;;;;;3.73;2.20;;;26.00;37.10;;;;;;5010014;28;20203;-65
2023/04/27 13:43:31;;;;;;;2.33;1.80;;;26.00;36.30;;;;;;5009666;28;20203;-65
2023/04/27 13:45:58;;;;;;;3.87;2.13;;;26.10;36.70;;;;;;5010259;28;20209;-65